createdAt,value
2017-10-22T00:00:26.584Z,90.70
2017-10-22T00:02:55.662Z,91.05
2017-10-22T00:05:23.994Z,91.13
2017-10-22T00:07:52.326Z,91.48
2017-10-22T00:10:21.414Z,91.41
2017-10-22T00:12:49.729Z,91.27
2017-10-22T00:15:18.051Z,91.00
2017-10-22T00:17:46.362Z,91.02
2017-10-22T00:20:15.445Z,90.89
2017-10-22T00:22:43.758Z,89.15
2017-10-22T00:25:12.081Z,87.90
2017-10-22T00:27:40.386Z,87.09
2017-10-22T00:30:09.489Z,86.93
2017-10-22T00:32:38.562Z,86.39
2017-10-22T00:35:06.883Z,85.86
2017-10-22T00:37:35.182Z,84.97
2017-10-22T00:40:08.458Z,84.74
2017-10-22T00:42:36.770Z,84.77
2017-10-22T00:45:05.106Z,84.75
2017-10-22T00:47:33.407Z,84.06
2017-10-22T00:50:01.725Z,84.50
2017-10-22T00:52:30.035Z,84.57
2017-10-22T00:54:58.354Z,84.79
2017-10-22T00:57:27.437Z,84.29
2017-10-22T00:59:55.745Z,84.32
2017-10-22T01:02:24.050Z,84.46
2017-10-22T01:04:52.373Z,84.82
2017-10-22T01:07:20.683Z,84.97
2017-10-22T01:09:48.994Z,85.48
2017-10-22T01:12:17.295Z,86.65
2017-10-22T01:14:45.607Z,85.96
2017-10-22T01:17:13.906Z,86.04
2017-10-22T01:19:42.977Z,86.08
2017-10-22T01:22:11.285Z,86.78
2017-10-22T01:24:40.364Z,86.55
2017-10-22T01:27:09.434Z,86.57
2017-10-22T01:29:37.758Z,86.88
2017-10-22T01:32:06.062Z,86.53
2017-10-22T01:34:34.394Z,86.63
2017-10-22T01:37:03.460Z,86.39
2017-10-22T01:39:31.778Z,86.34
2017-10-22T01:42:00.851Z,86.30
2017-10-22T01:44:29.164Z,86.11
2017-10-22T01:46:57.477Z,85.92
2017-10-22T01:49:25.785Z,86.19
2017-10-22T01:51:54.103Z,86.72
2017-10-22T01:54:22.418Z,87.04
2017-10-22T01:56:50.728Z,87.04
2017-10-22T01:59:19.830Z,87.24
2017-10-22T02:01:48.138Z,87.11
2017-10-22T02:04:16.446Z,87.32
2017-10-22T02:06:44.749Z,87.71
2017-10-22T02:09:13.825Z,88.00
2017-10-22T02:11:42.129Z,87.73
2017-10-22T02:14:11.216Z,87.75
2017-10-22T02:16:40.298Z,87.69
2017-10-22T02:19:08.597Z,87.94
2017-10-22T02:21:37.673Z,87.88
2017-10-22T02:24:05.976Z,88.33
2017-10-22T02:26:35.095Z,88.66
2017-10-22T02:29:03.399Z,89.18
2017-10-22T02:31:31.750Z,90.00
2017-10-22T02:34:00.106Z,89.92
2017-10-22T02:36:28.421Z,90.49
2017-10-22T02:38:56.737Z,90.85
2017-10-22T02:41:25.885Z,90.88
2017-10-22T02:43:54.268Z,90.97
2017-10-22T02:46:22.619Z,91.39
2017-10-22T02:48:50.937Z,92.21
2017-10-22T02:51:19.302Z,92.06
2017-10-22T02:53:47.674Z,91.75
2017-10-22T02:56:16.023Z,91.70
2017-10-22T02:58:45.097Z,91.40
2017-10-22T03:01:13.445Z,91.35
2017-10-22T03:03:41.769Z,91.00
2017-10-22T03:06:10.862Z,91.12
2017-10-22T03:08:40.037Z,90.55
2017-10-22T03:11:08.457Z,90.04
2017-10-22T03:13:37.558Z,89.49
2017-10-22T03:16:05.964Z,88.93
2017-10-22T03:18:34.399Z,88.60
2017-10-22T03:21:03.563Z,87.72
2017-10-22T03:23:31.902Z,87.37
2017-10-22T03:26:00.302Z,87.30
2017-10-22T03:28:29.077Z,87.08
2017-10-22T03:30:57.484Z,86.94
2017-10-22T03:33:25.867Z,87.21
2017-10-22T03:35:54.223Z,87.21
2017-10-22T03:38:22.578Z,86.70
2017-10-22T03:40:50.955Z,87.02
2017-10-22T03:43:19.363Z,87.13
2017-10-22T03:45:47.715Z,87.22
2017-10-22T03:48:16.133Z,87.24
2017-10-22T03:50:44.492Z,87.45
2017-10-22T03:53:12.953Z,87.54
2017-10-22T03:55:41.295Z,87.65
2017-10-22T03:58:09.650Z,87.65
2017-10-22T04:00:38.087Z,87.85
2017-10-22T04:03:06.461Z,87.88
2017-10-22T04:05:34.765Z,87.85
2017-10-22T04:08:03.116Z,88.17
2017-10-22T04:10:31.425Z,88.39
2017-10-22T04:12:59.752Z,88.16
2017-10-22T04:15:28.863Z,88.29
2017-10-22T04:17:57.216Z,88.16
2017-10-22T04:20:25.545Z,88.30
2017-10-22T04:22:53.849Z,88.69
2017-10-22T04:25:22.169Z,88.42
2017-10-22T04:27:50.513Z,88.40
2017-10-22T04:30:18.821Z,88.29
2017-10-22T04:32:48.711Z,88.41
2017-10-22T04:35:17.100Z,88.67
2017-10-22T04:37:46.312Z,88.85
2017-10-22T04:40:15.418Z,89.22
2017-10-22T04:42:43.736Z,89.54
2017-10-22T04:45:12.077Z,89.89
2017-10-22T04:47:40.423Z,90.31
2017-10-22T04:50:09.555Z,90.48
2017-10-22T04:52:37.885Z,90.49
2017-10-22T04:55:06.247Z,90.61
2017-10-22T04:57:34.587Z,90.62
2017-10-22T05:00:02.893Z,90.80
2017-10-22T05:02:31.206Z,90.72
2017-10-22T05:04:59.513Z,90.75
2017-10-22T05:07:27.822Z,90.70
2017-10-22T05:09:56.133Z,90.57
2017-10-22T05:12:24.434Z,90.66
2017-10-22T05:14:53.525Z,90.64
2017-10-22T05:17:22.618Z,90.43
2017-10-22T05:19:51.685Z,90.36
2017-10-22T05:22:19.989Z,90.51
2017-10-22T05:24:49.082Z,90.67
2017-10-22T05:27:18.149Z,90.63
2017-10-22T05:29:46.470Z,90.70
2017-10-22T05:32:14.779Z,90.63
2017-10-22T05:34:43.081Z,90.64
2017-10-22T05:37:11.390Z,90.35
2017-10-22T05:39:40.461Z,90.24
2017-10-22T05:42:08.750Z,90.63
2017-10-22T05:44:37.831Z,90.55
2017-10-22T05:47:06.168Z,90.63
2017-10-22T05:49:34.489Z,90.92
2017-10-22T05:52:02.839Z,90.44
2017-10-22T05:54:31.236Z,90.35
2017-10-22T05:56:59.577Z,90.42
2017-10-22T05:59:27.967Z,90.05
2017-10-22T06:01:56.265Z,89.08
2017-10-22T06:04:24.621Z,89.00
2017-10-22T06:06:52.927Z,88.67
2017-10-22T06:09:21.281Z,88.72
2017-10-22T06:11:49.609Z,88.29
2017-10-22T06:14:18.719Z,87.98
2017-10-22T06:16:47.785Z,87.43
2017-10-22T06:19:16.137Z,87.15
2017-10-22T06:21:44.459Z,86.84
2017-10-22T06:24:13.594Z,86.19
2017-10-22T06:26:42.104Z,85.12
2017-10-22T06:29:10.441Z,84.85
2017-10-22T06:31:38.749Z,82.77
2017-10-22T06:34:11.010Z,81.32
2017-10-22T06:36:39.373Z,81.46
2017-10-22T06:39:07.673Z,80.57
2017-10-22T06:41:35.978Z,80.47
2017-10-22T06:44:04.289Z,80.57
2017-10-22T06:46:32.606Z,79.44
2017-10-22T06:49:00.929Z,79.03
2017-10-22T06:51:30.003Z,79.25
2017-10-22T06:53:58.352Z,79.64
2017-10-22T06:56:26.654Z,79.00
2017-10-22T06:58:54.970Z,78.92
2017-10-22T07:01:23.278Z,79.34
2017-10-22T07:03:51.619Z,78.39
2017-10-22T07:06:20.685Z,78.79
2017-10-22T07:08:48.994Z,79.52
2017-10-22T07:11:18.053Z,80.13
2017-10-22T07:13:46.365Z,79.93
2017-10-22T07:16:14.771Z,80.46
2017-10-22T07:18:43.077Z,81.18
2017-10-22T07:21:11.386Z,81.04
2017-10-22T07:23:40.494Z,80.24
2017-10-22T07:26:08.801Z,80.70
2017-10-22T07:28:37.116Z,80.06
2017-10-22T07:31:05.416Z,79.69
2017-10-22T07:33:34.501Z,79.42
2017-10-22T07:36:03.571Z,79.09
2017-10-22T07:38:31.914Z,78.48
2017-10-22T07:41:00.223Z,76.44
2017-10-22T07:43:28.530Z,76.50
2017-10-22T07:45:56.866Z,75.58
2017-10-22T07:48:25.165Z,74.65
2017-10-22T07:50:53.475Z,73.96
2017-10-22T07:53:22.538Z,72.92
2017-10-22T07:55:50.869Z,72.90
2017-10-22T07:58:19.160Z,73.08
2017-10-22T08:00:47.477Z,72.47
2017-10-22T08:03:15.785Z,72.17
2017-10-22T08:05:45.134Z,71.79
2017-10-22T08:08:13.438Z,71.08
2017-10-22T08:10:41.747Z,70.79
2017-10-22T08:13:10.049Z,70.46
2017-10-22T08:15:38.358Z,70.50
2017-10-22T08:18:06.655Z,70.61
2017-10-22T08:20:35.730Z,70.06
2017-10-22T08:23:04.044Z,70.84
2017-10-22T08:25:33.127Z,69.95
2017-10-22T08:28:02.188Z,69.27
2017-10-22T08:30:30.534Z,69.26
2017-10-22T08:32:58.840Z,68.73
2017-10-22T08:35:27.145Z,68.49
2017-10-22T08:37:55.450Z,68.12
2017-10-22T08:40:23.749Z,70.13
2017-10-22T08:42:52.049Z,67.38
2017-10-22T08:45:20.375Z,65.18
2017-10-22T08:47:48.689Z,65.92
2017-10-22T08:50:16.997Z,65.36
2017-10-22T08:52:45.309Z,63.54
2017-10-22T08:55:13.652Z,62.75
2017-10-22T08:57:41.962Z,58.96
2017-10-22T09:00:10.282Z,49.85
2017-10-22T09:02:38.638Z,48.00
2017-10-22T09:05:06.941Z,46.53
2017-10-22T09:07:35.251Z,44.33
2017-10-22T09:10:04.339Z,42.56
2017-10-22T09:12:32.632Z,40.56
2017-10-22T09:15:01.717Z,40.05
2017-10-22T09:17:30.017Z,42.21
2017-10-22T09:19:59.105Z,42.06
2017-10-22T09:22:28.186Z,40.67
2017-10-22T09:24:56.497Z,40.16
2017-10-22T09:27:24.805Z,39.81
2017-10-22T09:29:53.881Z,41.33
2017-10-22T09:32:22.173Z,42.01
2017-10-22T09:34:51.249Z,40.55
2017-10-22T09:37:19.546Z,44.00
2017-10-22T09:39:47.852Z,48.42
2017-10-22T09:42:16.162Z,52.61
2017-10-22T09:44:44.495Z,54.19
2017-10-22T09:47:12.807Z,55.54
2017-10-22T09:49:41.885Z,55.86
2017-10-22T09:52:10.189Z,58.56
2017-10-22T09:54:38.531Z,58.16
2017-10-22T09:57:06.829Z,57.42
2017-10-22T09:59:35.894Z,56.95
2017-10-22T10:02:04.205Z,58.45
2017-10-22T10:04:33.259Z,59.06
2017-10-22T10:07:01.586Z,57.52
2017-10-22T10:09:29.881Z,56.94
2017-10-22T10:11:58.190Z,56.40
2017-10-22T10:14:26.478Z,56.13
2017-10-22T10:16:54.808Z,57.51
2017-10-22T10:19:23.105Z,57.07
2017-10-22T10:21:51.415Z,57.39
2017-10-22T10:24:19.761Z,55.96
2017-10-22T10:26:48.059Z,57.18
2017-10-22T10:29:16.362Z,57.36
2017-10-22T10:31:44.665Z,56.94
2017-10-22T10:34:13.742Z,55.85
2017-10-22T10:36:42.057Z,55.92
2017-10-22T10:39:10.358Z,57.07
2017-10-22T10:41:38.665Z,57.72
2017-10-22T10:44:07.737Z,58.59
2017-10-22T10:46:36.050Z,58.63
2017-10-22T10:49:05.129Z,59.42
2017-10-22T10:51:33.433Z,58.78
2017-10-22T10:54:01.735Z,58.56
2017-10-22T10:56:30.043Z,58.03
2017-10-22T10:58:58.345Z,57.58
2017-10-22T11:01:27.418Z,57.66
2017-10-22T11:03:55.721Z,57.97
2017-10-22T11:06:24.798Z,58.19
2017-10-22T11:08:53.101Z,59.80
2017-10-22T11:11:23.040Z,59.72
2017-10-22T11:13:51.357Z,60.60
2017-10-22T11:16:19.681Z,59.99
2017-10-22T11:18:48.012Z,58.89
2017-10-22T11:21:16.314Z,58.27
2017-10-22T11:23:45.402Z,57.60
2017-10-22T11:26:13.722Z,59.50
2017-10-22T11:28:42.033Z,59.60
2017-10-22T11:31:10.325Z,60.36
2017-10-22T11:33:38.630Z,61.67
2017-10-22T11:36:07.706Z,61.54
2017-10-22T11:38:36.006Z,61.70
2017-10-22T11:41:04.336Z,62.11
2017-10-22T11:43:32.648Z,62.01
2017-10-22T11:46:01.736Z,62.29
2017-10-22T11:48:30.037Z,62.71
2017-10-22T11:50:58.341Z,62.96
2017-10-22T11:53:26.641Z,62.85
2017-10-22T11:55:54.942Z,62.97
2017-10-22T11:58:23.253Z,63.32
2017-10-22T12:00:51.554Z,63.54
2017-10-22T12:05:54.469Z,63.51
2017-10-22T12:08:23.562Z,62.96
2017-10-22T12:10:51.905Z,63.46
2017-10-22T12:13:20.210Z,63.66
2017-10-22T12:15:48.511Z,63.80
2017-10-22T12:18:16.821Z,67.03
2017-10-22T12:20:45.129Z,67.96
2017-10-22T12:23:14.122Z,69.37
2017-10-22T12:25:42.425Z,70.54
2017-10-22T12:28:10.729Z,68.93
2017-10-22T12:30:39.789Z,69.59
2017-10-22T12:33:08.100Z,69.96
2017-10-22T12:35:36.391Z,70.94
2017-10-22T12:38:04.736Z,71.50
2017-10-22T12:40:33.033Z,70.51
2017-10-22T12:43:01.338Z,72.10
2017-10-22T12:45:29.629Z,72.16
2017-10-22T12:47:58.007Z,71.70
2017-10-22T12:50:26.342Z,71.85
2017-10-22T12:52:54.644Z,72.25
2017-10-22T12:55:22.956Z,72.39
2017-10-22T12:57:51.256Z,71.79
2017-10-22T13:00:19.655Z,72.10
2017-10-22T13:02:48.725Z,71.48
2017-10-22T13:05:17.038Z,71.62
2017-10-22T13:07:46.109Z,71.86
2017-10-22T13:10:14.425Z,71.68
2017-10-22T13:12:42.731Z,71.20
2017-10-22T13:15:11.045Z,71.97
2017-10-22T13:17:39.378Z,71.24
2017-10-22T13:20:07.754Z,71.79
2017-10-22T13:22:36.049Z,72.45
2017-10-22T13:25:04.359Z,73.17
2017-10-22T13:27:32.680Z,72.76
2017-10-22T13:30:00.985Z,72.41
2017-10-22T13:32:29.303Z,72.59
2017-10-22T13:34:58.384Z,73.00
2017-10-22T13:37:26.703Z,73.79
2017-10-22T13:39:55.027Z,73.55
2017-10-22T13:42:23.334Z,73.48
2017-10-22T13:44:51.641Z,72.40
2017-10-22T13:47:19.992Z,72.70
2017-10-22T13:49:49.081Z,72.63
2017-10-22T13:52:17.385Z,71.78
2017-10-22T13:54:45.717Z,71.37
2017-10-22T13:57:14.017Z,72.05
2017-10-22T13:59:43.097Z,72.54
2017-10-22T14:02:11.398Z,72.87
2017-10-22T14:04:40.473Z,72.54
2017-10-22T14:07:09.549Z,73.21
2017-10-22T14:09:37.861Z,74.05
2017-10-22T14:12:06.939Z,75.03
2017-10-22T14:14:35.250Z,76.40
2017-10-22T14:17:03.553Z,76.62
2017-10-22T14:19:31.860Z,78.12
2017-10-22T14:22:00.157Z,77.76
2017-10-22T14:24:29.229Z,77.29
2017-10-22T14:26:57.546Z,76.92
2017-10-22T14:29:25.858Z,78.22
2017-10-22T14:31:54.155Z,77.43
2017-10-22T14:34:22.478Z,76.53
2017-10-22T14:36:50.781Z,76.42
2017-10-22T14:39:19.093Z,76.57
2017-10-22T14:41:47.389Z,76.14
2017-10-22T14:44:16.461Z,75.91
2017-10-22T14:46:44.761Z,75.84
2017-10-22T14:49:13.837Z,75.38
2017-10-22T14:51:42.129Z,75.88
2017-10-22T14:54:10.446Z,75.29
2017-10-22T14:56:38.737Z,75.47
2017-10-22T14:59:07.085Z,75.06
2017-10-22T15:01:35.381Z,75.27
2017-10-22T15:04:03.689Z,76.09
2017-10-22T15:06:31.993Z,76.26
2017-10-22T15:09:01.070Z,77.16
2017-10-22T15:11:29.379Z,77.77
2017-10-22T15:13:58.445Z,77.90
2017-10-22T15:16:26.749Z,77.49
2017-10-22T15:18:55.813Z,77.35
2017-10-22T15:21:24.147Z,77.77
2017-10-22T15:23:52.457Z,77.63
2017-10-22T15:26:20.770Z,77.95
2017-10-22T15:28:49.837Z,78.20
2017-10-22T15:31:18.146Z,78.63
2017-10-22T15:33:47.213Z,77.32
2017-10-22T15:36:15.521Z,78.09
2017-10-22T15:38:44.582Z,78.17
2017-10-22T15:41:12.889Z,78.45
2017-10-22T15:43:41.973Z,78.28
2017-10-22T15:46:10.280Z,77.28
2017-10-22T15:48:38.583Z,78.18
2017-10-22T15:51:06.886Z,78.58
2017-10-22T15:53:35.181Z,78.75
2017-10-22T15:56:03.489Z,79.49
2017-10-22T15:58:31.824Z,79.93
2017-10-22T16:01:00.135Z,80.30
2017-10-22T16:03:28.430Z,80.99
2017-10-22T16:05:56.724Z,81.49
2017-10-22T16:08:25.013Z,81.28
2017-10-22T16:10:53.326Z,81.51
2017-10-22T16:13:22.644Z,80.42
2017-10-22T16:15:50.945Z,81.12
2017-10-22T16:18:19.232Z,81.51
2017-10-22T16:20:47.565Z,81.50
2017-10-22T16:23:16.630Z,81.21
2017-10-22T16:25:45.148Z,81.50
2017-10-22T16:28:14.217Z,81.36
2017-10-22T16:30:42.538Z,81.18
2017-10-22T16:33:10.845Z,81.23
2017-10-22T16:35:39.148Z,81.63
2017-10-22T16:38:07.461Z,81.28
2017-10-22T16:40:35.760Z,81.42
2017-10-22T16:43:04.062Z,81.52
2017-10-22T16:45:32.365Z,81.72
2017-10-22T16:48:00.673Z,81.84
2017-10-22T16:50:28.965Z,86.10
2017-10-22T16:52:57.278Z,81.07
2017-10-22T16:55:26.689Z,81.11
2017-10-22T16:57:54.998Z,81.08
2017-10-22T17:00:23.299Z,81.75
2017-10-22T17:02:51.604Z,81.91
2017-10-22T17:05:19.902Z,82.26
2017-10-22T17:07:48.205Z,82.26
2017-10-22T17:10:16.509Z,82.64
2017-10-22T17:12:44.817Z,82.05
2017-10-22T17:15:13.110Z,82.15
2017-10-22T17:17:41.437Z,82.29
2017-10-22T17:20:09.735Z,82.49
2017-10-22T17:22:38.043Z,82.66
2017-10-22T17:25:07.115Z,82.80
2017-10-22T17:27:35.430Z,83.31
2017-10-22T17:30:04.489Z,82.75
2017-10-22T17:32:32.796Z,83.27
2017-10-22T17:35:01.858Z,82.94
2017-10-22T17:37:30.173Z,83.00
2017-10-22T17:39:59.235Z,82.90
2017-10-22T17:42:27.544Z,82.88
2017-10-22T17:44:56.620Z,83.36
2017-10-22T17:47:24.930Z,83.32
2017-10-22T17:49:53.394Z,83.25
2017-10-22T17:52:22.572Z,83.21
2017-10-22T17:54:50.868Z,83.40
2017-10-22T17:57:19.951Z,83.54
2017-10-22T17:59:48.249Z,83.44
2017-10-22T18:02:17.319Z,82.90
2017-10-22T18:04:45.629Z,82.92
2017-10-22T18:07:13.965Z,83.52
2017-10-22T18:09:42.265Z,84.10
2017-10-22T18:12:11.325Z,84.16
2017-10-22T18:14:39.651Z,84.67
2017-10-22T18:17:07.965Z,84.97
2017-10-22T18:19:36.281Z,85.40
2017-10-22T18:22:04.604Z,85.55
2017-10-22T18:24:32.913Z,86.47
2017-10-22T18:27:01.229Z,86.53
2017-10-22T18:29:30.321Z,86.64
2017-10-22T18:31:58.622Z,86.95
2017-10-22T18:34:26.968Z,87.47
2017-10-22T18:36:56.103Z,88.45
2017-10-22T18:39:24.467Z,88.28
2017-10-22T18:41:52.773Z,88.91
2017-10-22T18:44:21.098Z,89.41
2017-10-22T18:46:49.417Z,89.19
2017-10-22T18:49:17.745Z,88.88
2017-10-22T18:51:46.144Z,89.44
2017-10-22T18:54:15.237Z,89.84
2017-10-22T18:56:44.306Z,90.01
2017-10-22T18:59:12.642Z,90.02
2017-10-22T19:01:40.946Z,90.18
2017-10-22T19:04:09.321Z,90.21
2017-10-22T19:06:37.624Z,90.29
2017-10-22T19:09:05.939Z,90.26
2017-10-22T19:11:34.241Z,90.05
2017-10-22T19:14:02.573Z,90.55
2017-10-22T19:16:30.890Z,90.30
2017-10-22T19:18:59.217Z,89.93
2017-10-22T19:21:28.291Z,89.07
2017-10-22T19:23:56.614Z,88.74
2017-10-22T19:26:25.682Z,88.85
2017-10-22T19:28:53.994Z,89.57
2017-10-22T19:31:22.301Z,89.53
2017-10-22T19:33:50.630Z,89.17
2017-10-22T19:36:19.703Z,89.52
2017-10-22T19:38:48.023Z,89.12
2017-10-22T19:41:16.389Z,89.26
2017-10-22T19:43:44.744Z,88.62
2017-10-22T19:46:13.038Z,88.63
2017-10-22T19:48:42.133Z,88.04
2017-10-22T19:51:11.241Z,88.14
2017-10-22T19:53:39.561Z,88.26
2017-10-22T19:56:07.910Z,87.92
2017-10-22T19:58:36.274Z,88.00
2017-10-22T20:01:04.596Z,88.18
2017-10-22T20:03:32.931Z,88.41
2017-10-22T20:06:01.233Z,88.12
2017-10-22T20:08:29.547Z,88.15
2017-10-22T20:10:57.882Z,88.08
2017-10-22T20:13:26.210Z,88.13
2017-10-22T20:15:55.278Z,88.18
2017-10-22T20:18:23.589Z,88.26
2017-10-22T20:20:52.660Z,88.33
2017-10-22T20:23:20.974Z,88.33
2017-10-22T20:25:50.042Z,88.59
2017-10-22T20:28:18.394Z,88.22
2017-10-22T20:30:46.691Z,88.43
2017-10-22T20:33:15.032Z,88.64
2017-10-22T20:35:43.337Z,88.68
2017-10-22T20:38:11.653Z,88.66
2017-10-22T20:40:40.741Z,88.24
2017-10-22T20:43:09.057Z,88.23
2017-10-22T20:45:37.353Z,87.90
2017-10-22T20:48:05.683Z,87.83
2017-10-22T20:50:34.799Z,87.89
2017-10-22T20:53:03.113Z,87.79
2017-10-22T20:55:31.422Z,87.63
2017-10-22T20:58:00.494Z,87.53
2017-10-22T21:00:28.815Z,87.42
2017-10-22T21:02:57.145Z,87.80
2017-10-22T21:05:25.457Z,87.77
2017-10-22T21:07:54.537Z,87.91
2017-10-22T21:10:22.850Z,88.03
2017-10-22T21:12:51.164Z,87.78
2017-10-22T21:15:19.472Z,87.96
2017-10-22T21:17:47.782Z,87.71
2017-10-22T21:20:16.102Z,87.27
2017-10-22T21:22:44.414Z,87.28
2017-10-22T21:25:13.505Z,86.93
2017-10-22T21:27:42.581Z,86.74
2017-10-22T21:30:10.894Z,86.82
2017-10-22T21:32:39.190Z,87.17
2017-10-22T21:35:07.497Z,86.79
2017-10-22T21:37:36.564Z,86.70
2017-10-22T21:40:04.909Z,86.54
2017-10-22T21:42:33.982Z,86.56
2017-10-22T21:45:02.298Z,86.15
2017-10-22T21:47:30.617Z,86.17
2017-10-22T21:49:58.933Z,86.07
2017-10-22T21:52:28.001Z,85.98
2017-10-22T21:54:56.314Z,85.76
2017-10-22T21:57:25.439Z,85.60
2017-10-22T21:59:53.752Z,85.69
2017-10-22T22:02:22.057Z,85.52
2017-10-22T22:04:51.145Z,85.27
2017-10-22T22:07:20.253Z,84.90
2017-10-22T22:09:49.344Z,84.10
2017-10-22T22:12:18.426Z,84.59
2017-10-22T22:14:47.512Z,84.66
2017-10-22T22:17:15.810Z,84.65
2017-10-22T22:19:44.921Z,84.50
2017-10-22T22:22:13.223Z,84.92
2017-10-22T22:24:41.541Z,85.21
2017-10-22T22:27:09.837Z,84.52
2017-10-22T22:29:38.923Z,85.01
2017-10-22T22:32:07.231Z,84.87
2017-10-22T22:34:35.577Z,84.79
2017-10-22T22:37:03.890Z,84.50
2017-10-22T22:39:32.200Z,84.64
2017-10-22T22:42:00.523Z,84.75
2017-10-22T22:44:29.602Z,84.93
2017-10-22T22:46:57.928Z,84.79
2017-10-22T22:49:26.254Z,84.99
2017-10-22T22:51:54.573Z,84.81
2017-10-22T22:54:22.886Z,84.60
2017-10-22T22:56:51.201Z,84.51
2017-10-22T22:59:20.274Z,84.57
2017-10-22T23:01:48.592Z,84.76
2017-10-22T23:04:16.898Z,84.67
2017-10-22T23:06:45.217Z,85.03
2017-10-22T23:09:13.528Z,84.92
2017-10-22T23:11:41.845Z,84.90
2017-10-22T23:14:10.149Z,84.86
2017-10-22T23:16:38.470Z,84.92
2017-10-22T23:19:06.809Z,84.78
2017-10-22T23:21:35.921Z,85.00
2017-10-22T23:24:04.997Z,84.77
2017-10-22T23:26:33.324Z,84.65
2017-10-22T23:29:01.669Z,84.76
2017-10-22T23:31:30.751Z,85.12
2017-10-22T23:33:59.847Z,84.67
2017-10-22T23:36:28.170Z,84.28
2017-10-22T23:38:56.478Z,85.28
2017-10-22T23:41:24.794Z,85.00
2017-10-22T23:43:53.117Z,84.58
2017-10-22T23:46:21.422Z,84.27
2017-10-22T23:48:49.742Z,84.91
2017-10-22T23:51:18.057Z,84.99
2017-10-22T23:53:46.393Z,84.92
2017-10-22T23:56:14.713Z,84.32
2017-10-22T23:58:43.038Z,84.23
